Yap, Federated States of Micronesia
Current Conditions -  °F | °C
As of 10:50 AM on Tuesday 23 Dec 2014 (Local Time) from PTYA Reporting Station
Broken Clouds Broken Clouds  
Wind Chill: 87°   Ceiling: 30000
Heat Index: 99°   Visibility: 12mi
Dew Point: 78°   Wind: 13mph
Humidity: 74%   Direction: 80°E
Pressure: 29.83"   Gusts: NA
Location:  9.48°N, 138.08°E
Report Text: PTYA 230050Z 08011KT 12SM SCT017 BKN300 30/25 A2983 RMK SLP101 T03040253
Loading
Personal Weather Stations






























Interactive Weather Map New forecast layout! Learn more

10-Day Weather Forecast

Advertisements
Track Severe Weather on mobile